createdAt,value
2019-06-27T00:00:55.049Z,15.57
2019-06-27T00:03:29.639Z,12.60
2019-06-27T00:06:04.769Z,14.03
2019-06-27T00:08:36.157Z,15.13
2019-06-27T00:11:12.029Z,13.83
2019-06-27T00:13:44.681Z,14.60
2019-06-27T00:16:19.920Z,14.00
2019-06-27T00:18:51.278Z,13.90
2019-06-27T00:21:24.161Z,13.97
2019-06-27T00:23:56.148Z,14.40
2019-06-27T00:26:28.275Z,13.17
2019-06-27T00:29:00.259Z,14.63
2019-06-27T00:31:33.288Z,15.10
2019-06-27T00:34:06.306Z,13.77
2019-06-27T00:36:40.204Z,13.70
2019-06-27T00:39:18.145Z,15.57
2019-06-27T00:41:53.722Z,17.40
2019-06-27T00:44:26.082Z,15.37
2019-06-27T00:46:57.366Z,15.67
2019-06-27T00:49:31.012Z,14.87
2019-06-27T00:52:05.032Z,14.30
2019-06-27T00:54:40.029Z,15.10
2019-06-27T00:57:15.074Z,14.43
2019-06-27T00:59:48.339Z,15.90
2019-06-27T01:02:23.466Z,13.93
2019-06-27T01:04:58.999Z,15.33
2019-06-27T01:07:30.506Z,14.73
2019-06-27T01:10:03.365Z,16.40
2019-06-27T01:12:36.516Z,14.93
2019-06-27T01:15:12.966Z,14.70
2019-06-27T01:17:45.381Z,13.90
2019-06-27T01:20:18.453Z,14.80
2019-06-27T01:22:51.186Z,14.80
2019-06-27T01:25:22.407Z,13.90
2019-06-27T01:27:55.675Z,15.50
2019-06-27T01:30:27.666Z,14.80
2019-06-27T01:33:00.663Z,14.50
2019-06-27T01:35:33.637Z,13.13
2019-06-27T01:38:06.478Z,15.83
2019-06-27T01:40:39.716Z,14.20
2019-06-27T01:43:16.989Z,17.07
2019-06-27T01:45:54.340Z,16.10
2019-06-27T01:48:27.837Z,14.97
2019-06-27T01:51:00.886Z,15.63
2019-06-27T01:53:33.789Z,15.60
2019-06-27T01:56:09.412Z,15.13
2019-06-27T01:58:43.527Z,16.40
2019-06-27T02:01:17.670Z,15.33
2019-06-27T02:03:51.411Z,16.67
2019-06-27T02:06:24.741Z,16.13
2019-06-27T02:08:57.746Z,16.60
2019-06-27T02:11:29.874Z,17.13
2019-06-27T02:14:05.406Z,17.30
2019-06-27T02:16:38.766Z,15.97
2019-06-27T02:19:26.272Z,14.97
2019-06-27T02:21:57.724Z,16.47
2019-06-27T02:24:28.951Z,18.20
2019-06-27T02:27:02.843Z,18.37
2019-06-27T02:29:34.865Z,17.07
2019-06-27T02:32:07.048Z,15.23
2019-06-27T02:34:40.044Z,16.03
2019-06-27T02:37:16.285Z,16.30
2019-06-27T02:39:47.820Z,15.00
2019-06-27T02:42:21.883Z,16.23
2019-06-27T02:44:55.750Z,16.23
2019-06-27T02:47:27.056Z,15.00
2019-06-27T02:50:02.512Z,17.30
2019-06-27T02:52:33.961Z,16.30
2019-06-27T02:55:06.995Z,24.30
2019-06-27T02:57:39.133Z,22.43
2019-06-27T03:00:13.672Z,27.10
2019-06-27T03:02:44.874Z,25.20
2019-06-27T03:05:20.201Z,19.90
2019-06-27T03:07:51.550Z,19.37
2019-06-27T03:10:25.007Z,18.50
2019-06-27T03:12:58.007Z,17.37
2019-06-27T03:15:31.016Z,18.50
2019-06-27T03:18:03.977Z,18.80
2019-06-27T03:20:37.999Z,21.37
2019-06-27T03:23:16.819Z,21.73
2019-06-27T03:25:51.182Z,24.17
2019-06-27T03:28:25.155Z,27.53
2019-06-27T03:30:59.989Z,22.40
2019-06-27T03:33:41.379Z,20.20
2019-06-27T03:36:13.257Z,23.83
2019-06-27T03:38:47.245Z,21.13
2019-06-27T03:41:23.051Z,19.60
2019-06-27T03:43:55.215Z,20.00
2019-06-27T03:49:46.024Z,17.30
2019-06-27T03:52:19.147Z,16.17
2019-06-27T03:54:51.902Z,15.30
2019-06-27T03:57:25.104Z,18.60
2019-06-27T03:59:58.319Z,18.00
2019-06-27T04:02:32.165Z,16.20
2019-06-27T04:08:44.838Z,17.30
2019-06-27T04:11:23.673Z,18.53
2019-06-27T04:13:55.352Z,16.77
2019-06-27T04:16:28.260Z,16.10
2019-06-27T04:19:01.581Z,15.53
2019-06-27T04:21:34.363Z,18.00
2019-06-27T04:24:08.301Z,16.63
2019-06-27T04:26:40.559Z,19.40
2019-06-27T04:29:32.632Z,17.63
2019-06-27T04:31:53.920Z,18.23
2019-06-27T04:34:29.926Z,16.33
2019-06-27T04:37:01.424Z,14.13
2019-06-27T04:39:34.163Z,16.50
2019-06-27T04:42:05.766Z,13.73
2019-06-27T04:44:39.757Z,15.53
2019-06-27T04:47:17.882Z,14.80
2019-06-27T04:49:51.621Z,15.43
2019-06-27T04:52:24.477Z,14.57
2019-06-27T04:55:02.740Z,15.77
2019-06-27T04:57:32.606Z,15.57
2019-06-27T05:00:04.844Z,15.40
2019-06-27T05:02:37.605Z,16.53
2019-06-27T05:05:12.319Z,15.30
2019-06-27T05:07:47.444Z,16.00
2019-06-27T05:10:20.903Z,16.40
2019-06-27T05:12:52.143Z,14.70
2019-06-27T05:15:23.557Z,16.20
2019-06-27T05:17:59.305Z,15.00
2019-06-27T05:20:31.075Z,17.47
2019-06-27T05:23:03.112Z,16.50
2019-06-27T05:25:36.823Z,15.27
2019-06-27T05:28:08.036Z,14.67
2019-06-27T05:30:39.683Z,14.70
2019-06-27T05:33:13.899Z,13.90
2019-06-27T05:35:45.417Z,13.53
2019-06-27T05:38:18.214Z,14.63
2019-06-27T05:40:51.921Z,15.57
2019-06-27T05:43:25.668Z,15.03
2019-06-27T05:45:57.823Z,14.70
2019-06-27T05:48:33.528Z,15.53
2019-06-27T05:51:06.816Z,15.40
2019-06-27T05:53:45.615Z,14.70
2019-06-27T05:56:16.150Z,14.10
2019-06-27T05:58:51.897Z,14.43
2019-06-27T06:01:23.168Z,14.20
2019-06-27T06:03:56.119Z,14.70
2019-06-27T06:06:28.100Z,14.33
2019-06-27T06:09:01.069Z,15.30
2019-06-27T06:11:33.870Z,15.83
2019-06-27T06:14:07.935Z,16.90
2019-06-27T06:16:39.746Z,14.50
2019-06-27T06:19:18.462Z,15.03
2019-06-27T06:21:51.993Z,13.93
2019-06-27T06:24:26.758Z,15.30
2019-06-27T06:26:57.995Z,14.57
2019-06-27T06:29:30.104Z,15.87
2019-06-27T06:32:03.880Z,15.73
2019-06-27T06:34:36.396Z,14.50
2019-06-27T06:37:09.257Z,15.80
2019-06-27T06:39:42.420Z,13.53
2019-06-27T06:42:16.537Z,13.63
2019-06-27T06:44:48.062Z,13.40
2019-06-27T06:47:22.831Z,13.70
2019-06-27T06:49:55.233Z,13.33
2019-06-27T06:52:28.173Z,14.50
2019-06-27T06:55:01.026Z,13.00
2019-06-27T06:57:34.272Z,13.33
2019-06-27T07:00:09.007Z,14.70
2019-06-27T07:02:43.122Z,13.23
2019-06-27T07:05:16.294Z,12.97
2019-06-27T07:07:49.364Z,13.27
2019-06-27T07:10:23.995Z,13.80
2019-06-27T07:12:55.199Z,12.60
2019-06-27T07:15:30.101Z,12.67
2019-06-27T07:18:04.347Z,14.70
2019-06-27T07:20:37.273Z,12.17
2019-06-27T07:23:10.276Z,13.57
2019-06-27T07:25:43.329Z,13.40
2019-06-27T07:28:16.305Z,14.80
2019-06-27T07:30:49.251Z,15.17
2019-06-27T07:33:21.545Z,15.77
2019-06-27T07:35:54.413Z,13.60
2019-06-27T07:38:26.503Z,15.00
2019-06-27T07:40:58.443Z,14.07
2019-06-27T07:43:32.699Z,14.77
2019-06-27T07:46:04.483Z,14.67
2019-06-27T07:48:36.467Z,16.17
2019-06-27T07:51:08.918Z,15.83
2019-06-27T07:53:40.352Z,16.13
2019-06-27T07:56:14.403Z,15.53
2019-06-27T07:58:47.571Z,16.07
2019-06-27T08:01:34.077Z,14.73
2019-06-27T08:03:53.362Z,16.07
2019-06-27T08:06:27.019Z,16.53
2019-06-27T08:09:00.236Z,15.37
2019-06-27T08:11:31.455Z,15.17
2019-06-27T08:14:06.214Z,15.13
2019-06-27T08:16:37.593Z,15.70
2019-06-27T08:19:10.741Z,15.13
2019-06-27T08:21:45.506Z,14.80
2019-06-27T08:24:19.520Z,16.53
2019-06-27T08:26:52.047Z,15.50
2019-06-27T08:29:26.855Z,15.23
2019-06-27T08:31:58.524Z,16.20
2019-06-27T08:34:31.634Z,16.40
2019-06-27T08:37:05.082Z,16.00
2019-06-27T08:39:38.011Z,16.00
2019-06-27T08:42:10.766Z,16.50
2019-06-27T08:44:42.083Z,16.60
2019-06-27T08:47:14.697Z,15.07
2019-06-27T08:49:47.827Z,16.67
2019-06-27T08:52:19.834Z,14.90
2019-06-27T08:54:52.071Z,16.10
2019-06-27T08:57:27.404Z,16.20
2019-06-27T08:59:59.477Z,16.80
2019-06-27T09:02:32.823Z,15.60
2019-06-27T09:05:04.821Z,15.70
2019-06-27T09:07:40.664Z,16.93
2019-06-27T09:10:14.818Z,17.43
2019-06-27T09:12:48.103Z,16.03
2019-06-27T09:15:19.889Z,15.37
2019-06-27T09:17:52.199Z,16.27
2019-06-27T09:20:24.858Z,15.67
2019-06-27T09:22:57.637Z,16.63
2019-06-27T09:25:28.896Z,15.20
2019-06-27T09:28:02.165Z,16.30
2019-06-27T09:30:35.063Z,16.13
2019-06-27T09:33:08.194Z,15.17
2019-06-27T09:35:41.927Z,14.87
2019-06-27T09:38:13.917Z,16.10
2019-06-27T09:40:47.333Z,16.57
2019-06-27T09:43:19.113Z,17.60
2019-06-27T09:45:52.130Z,16.43
2019-06-27T09:48:24.989Z,15.27
2019-06-27T09:50:59.030Z,16.80
2019-06-27T09:53:31.023Z,16.87
2019-06-27T09:56:04.020Z,17.70
2019-06-27T09:58:37.415Z,17.20
2019-06-27T10:01:10.989Z,17.00
2019-06-27T10:03:46.398Z,16.00
2019-06-27T10:06:19.168Z,15.50
2019-06-27T10:08:52.338Z,15.43
2019-06-27T10:11:25.130Z,16.77
2019-06-27T10:14:00.511Z,15.30
2019-06-27T10:16:36.411Z,16.90
2019-06-27T10:19:11.973Z,14.53
2019-06-27T10:21:43.220Z,14.87
2019-06-27T10:24:16.396Z,16.17
2019-06-27T10:26:48.328Z,15.93
2019-06-27T10:29:31.490Z,16.03
2019-06-27T10:32:05.418Z,16.80
2019-06-27T10:34:39.340Z,16.27
2019-06-27T10:40:47.277Z,19.87
2019-06-27T10:43:19.309Z,19.63
2019-06-27T10:45:51.478Z,19.30
2019-06-27T10:51:48.939Z,19.00
2019-06-27T10:54:25.762Z,16.77
2019-06-27T10:57:00.384Z,18.37
2019-06-27T10:59:33.447Z,18.17
2019-06-27T11:02:13.842Z,19.97
2019-06-27T11:04:47.102Z,18.93
2019-06-27T11:07:19.544Z,21.30
2019-06-27T11:24:05.250Z,18.70
2019-06-27T11:37:34.128Z,14.30
2019-06-27T11:43:33.828Z,14.80
2019-06-27T11:46:08.832Z,14.53
2019-06-27T11:52:26.473Z,14.70
2019-06-27T11:55:00.807Z,13.97
2019-06-27T11:57:34.821Z,14.90
2019-06-27T12:00:08.881Z,13.87
2019-06-27T12:02:42.892Z,13.50
2019-06-27T12:05:16.760Z,13.90
2019-06-27T12:07:49.759Z,13.40
2019-06-27T12:10:57.136Z,13.00
2019-06-27T12:13:29.983Z,13.77
2019-06-27T12:16:02.901Z,13.30
2019-06-27T12:18:35.822Z,12.70
2019-06-27T12:21:14.476Z,14.00
2019-06-27T12:27:16.676Z,13.00
2019-06-27T12:29:51.110Z,13.93
2019-06-27T12:32:25.219Z,14.73
2019-06-27T12:48:36.944Z,14.63
2019-06-27T12:51:08.079Z,13.10
2019-06-27T12:53:42.635Z,13.30
2019-06-27T12:56:23.350Z,14.10
2019-06-27T12:58:56.060Z,16.50
2019-06-27T13:01:31.239Z,15.57
2019-06-27T13:04:22.372Z,16.53
2019-06-27T13:06:41.857Z,15.73
2019-06-27T13:09:14.242Z,15.90
2019-06-27T13:11:48.551Z,15.93
2019-06-27T13:14:21.153Z,17.23
2019-06-27T13:16:54.662Z,17.13
2019-06-27T13:19:28.602Z,16.80
2019-06-27T13:22:01.189Z,16.97
2019-06-27T13:24:32.424Z,17.90
2019-06-27T13:27:05.531Z,17.40
2019-06-27T13:29:38.198Z,19.27
2019-06-27T13:32:11.168Z,25.50
2019-06-27T13:34:43.286Z,22.10
2019-06-27T13:37:16.230Z,18.33
2019-06-27T13:39:49.299Z,17.83
2019-06-27T13:42:23.402Z,18.57
2019-06-27T13:44:56.251Z,16.17
2019-06-27T13:47:30.156Z,15.73
2019-06-27T13:50:02.334Z,16.17
2019-06-27T13:52:36.356Z,14.57
2019-06-27T13:55:08.706Z,15.80
2019-06-27T13:57:41.671Z,16.10
2019-06-27T14:00:15.935Z,15.00
2019-06-27T14:02:47.283Z,15.47
2019-06-27T14:05:20.510Z,16.53
2019-06-27T14:07:53.241Z,15.30
2019-06-27T14:10:28.086Z,20.80
2019-06-27T14:12:59.321Z,16.80
2019-06-27T14:15:34.169Z,18.20
2019-06-27T14:18:05.978Z,16.93
2019-06-27T14:20:39.487Z,16.20
2019-06-27T14:23:13.083Z,15.37
2019-06-27T14:25:45.412Z,15.83
2019-06-27T14:28:18.627Z,17.33
2019-06-27T14:30:51.586Z,14.90
2019-06-27T14:33:23.869Z,15.60
2019-06-27T14:35:55.414Z,19.07
2019-06-27T14:38:28.567Z,16.53
2019-06-27T14:41:01.563Z,14.87
2019-06-27T14:43:37.803Z,15.17
2019-06-27T14:46:10.658Z,17.50
2019-06-27T14:48:49.908Z,13.07
2019-06-27T14:51:23.651Z,13.57
2019-06-27T14:53:57.342Z,13.73
2019-06-27T14:56:33.136Z,13.07
2019-06-27T14:59:05.712Z,12.20
2019-06-27T15:01:37.494Z,12.60
2019-06-27T15:04:10.683Z,12.47
2019-06-27T15:06:43.693Z,12.50
2019-06-27T15:09:17.690Z,14.17
2019-06-27T15:11:52.491Z,13.97
2019-06-27T15:14:27.800Z,11.87
2019-06-27T15:17:03.273Z,12.03
2019-06-27T15:19:36.477Z,12.90
2019-06-27T15:22:10.851Z,13.83
2019-06-27T15:24:42.110Z,11.57
2019-06-27T15:27:13.872Z,11.37
2019-06-27T15:29:46.859Z,13.60
2019-06-27T15:32:20.887Z,11.80
2019-06-27T15:34:53.531Z,12.97
2019-06-27T15:37:25.846Z,12.07
2019-06-27T15:39:58.849Z,11.57
2019-06-27T15:42:30.051Z,14.17
2019-06-27T15:45:01.944Z,12.70
2019-06-27T15:47:35.034Z,11.70
2019-06-27T15:50:08.270Z,13.10
2019-06-27T15:52:40.988Z,12.60
2019-06-27T15:55:14.034Z,13.50
2019-06-27T15:57:47.149Z,12.00
2019-06-27T16:00:19.901Z,12.60
2019-06-27T16:02:52.814Z,12.43
2019-06-27T16:05:26.321Z,13.03
2019-06-27T16:08:00.602Z,12.80
2019-06-27T16:10:31.919Z,14.33
2019-06-27T16:13:04.944Z,13.47
2019-06-27T16:15:38.239Z,13.40
2019-06-27T16:18:11.407Z,14.20
2019-06-27T16:20:43.053Z,12.50
2019-06-27T16:23:17.010Z,12.23
2019-06-27T16:25:50.176Z,13.13
2019-06-27T16:28:26.742Z,10.93
2019-06-27T16:30:58.571Z,11.40
2019-06-27T16:33:31.046Z,11.93
2019-06-27T16:36:05.240Z,10.80
2019-06-27T16:38:38.223Z,11.73
2019-06-27T16:41:11.862Z,11.63
2019-06-27T16:43:44.278Z,12.53
2019-06-27T16:46:17.210Z,12.50
2019-06-27T16:48:51.123Z,10.63
2019-06-27T16:51:23.361Z,11.03
2019-06-27T16:53:56.288Z,12.50
2019-06-27T16:56:29.266Z,11.57
2019-06-27T16:59:06.008Z,11.13
2019-06-27T17:01:42.993Z,11.00
2019-06-27T17:04:14.334Z,11.97
2019-06-27T17:06:46.348Z,11.53
2019-06-27T17:09:20.474Z,11.30
2019-06-27T17:11:52.890Z,13.03
2019-06-27T17:14:33.711Z,10.43
2019-06-27T17:17:05.287Z,12.30
2019-06-27T17:19:39.108Z,9.90
2019-06-27T17:22:12.531Z,9.90
2019-06-27T17:24:46.388Z,8.30
2019-06-27T17:27:21.607Z,7.00
2019-06-27T17:29:52.880Z,6.10
2019-06-27T17:32:27.159Z,6.83
2019-06-27T17:34:59.558Z,5.73
2019-06-27T17:37:31.394Z,5.50
2019-06-27T17:40:10.010Z,4.63
2019-06-27T17:42:42.483Z,4.47
2019-06-27T17:45:20.415Z,4.80
2019-06-27T17:47:52.855Z,6.00
2019-06-27T17:50:28.177Z,4.17
2019-06-27T17:52:59.431Z,4.30
2019-06-27T17:55:32.709Z,5.47
2019-06-27T17:58:06.054Z,5.07
2019-06-27T18:00:39.607Z,4.73
2019-06-27T18:03:13.971Z,4.40
2019-06-27T18:05:47.699Z,4.77
2019-06-27T18:08:20.262Z,5.20
2019-06-27T18:14:44.553Z,4.90
2019-06-27T18:17:33.946Z,4.97
2019-06-27T18:20:07.717Z,5.70
2019-06-27T18:22:42.899Z,4.23
2019-06-27T18:25:17.524Z,5.30
2019-06-27T18:27:51.216Z,4.83
2019-06-27T18:30:25.738Z,4.87
2019-06-27T18:33:01.000Z,5.90
2019-06-27T18:35:42.256Z,4.83
2019-06-27T18:38:14.892Z,3.97
2019-06-27T18:40:46.484Z,4.83
2019-06-27T18:50:36.693Z,3.57
2019-06-27T18:56:47.209Z,2.83
2019-06-27T18:59:18.449Z,3.47
2019-06-27T19:01:54.034Z,4.53
2019-06-27T19:04:31.167Z,3.73
2019-06-27T19:07:02.847Z,3.90
2019-06-27T19:09:35.463Z,3.23
2019-06-27T19:12:09.041Z,3.90
2019-06-27T19:14:42.544Z,3.50
2019-06-27T19:17:17.747Z,3.60
2019-06-27T19:19:53.677Z,4.20
2019-06-27T19:22:43.952Z,3.40
2019-06-27T19:25:30.351Z,3.27
2019-06-27T19:28:02.756Z,3.03
2019-06-27T19:30:34.030Z,4.13
2019-06-27T19:33:07.998Z,3.90
2019-06-27T19:35:41.291Z,3.87
2019-06-27T19:38:12.989Z,3.80
2019-06-27T19:40:47.008Z,4.47
2019-06-27T19:43:27.886Z,4.70
2019-06-27T19:45:53.338Z,7.80
2019-06-27T19:48:25.757Z,6.57
2019-06-27T19:51:00.471Z,5.60
2019-06-27T19:53:32.516Z,3.57
2019-06-27T19:56:05.181Z,3.73
2019-06-27T19:58:39.452Z,3.47
2019-06-27T20:01:12.291Z,3.50
2019-06-27T20:03:45.716Z,2.57
2019-06-27T20:06:18.469Z,3.23
2019-06-27T20:08:51.078Z,2.90
2019-06-27T20:11:25.496Z,2.53
2019-06-27T20:13:59.269Z,3.10
2019-06-27T20:16:32.231Z,2.20
2019-06-27T20:19:06.100Z,2.67
2019-06-27T20:21:40.285Z,2.20
2019-06-27T20:24:14.636Z,2.50
2019-06-27T20:26:48.665Z,2.30
2019-06-27T20:29:22.577Z,2.43
2019-06-27T20:31:53.876Z,1.70
2019-06-27T20:34:28.353Z,1.73
2019-06-27T20:37:02.329Z,1.60
2019-06-27T20:39:35.300Z,2.00
2019-06-27T20:42:08.258Z,1.63
2019-06-27T20:44:40.249Z,3.63
2019-06-27T20:47:12.077Z,2.43
2019-06-27T20:49:46.035Z,2.80
2019-06-27T20:52:18.525Z,2.07
2019-06-27T20:54:52.076Z,1.93
2019-06-27T20:57:26.226Z,2.07
2019-06-27T21:00:01.137Z,2.10
2019-06-27T21:02:32.560Z,2.03
2019-06-27T21:05:06.753Z,1.87
2019-06-27T21:07:38.433Z,2.40
2019-06-27T21:10:13.032Z,2.27
2019-06-27T21:12:44.384Z,1.80
2019-06-27T21:15:17.704Z,2.00
2019-06-27T21:17:49.369Z,2.53
2019-06-27T21:20:22.769Z,3.60
2019-06-27T21:22:57.159Z,2.27
2019-06-27T21:25:29.561Z,2.00
2019-06-27T21:28:02.504Z,2.03
2019-06-27T21:30:35.657Z,2.10
2019-06-27T21:33:08.984Z,2.13
2019-06-27T21:35:44.664Z,2.20
2019-06-27T21:38:17.315Z,2.07
2019-06-27T21:40:49.506Z,2.07
2019-06-27T21:43:24.543Z,2.50
2019-06-27T21:45:56.551Z,2.57
2019-06-27T21:48:29.200Z,1.63
2019-06-27T21:51:03.276Z,1.57
2019-06-27T21:53:40.652Z,2.10
2019-06-27T21:56:16.866Z,2.17
2019-06-27T21:58:49.198Z,2.90
2019-06-27T22:04:46.585Z,1.87
2019-06-27T22:07:21.674Z,2.30
2019-06-27T22:09:53.365Z,2.20
2019-06-27T22:12:26.370Z,2.20
2019-06-27T22:14:58.664Z,2.33
2019-06-27T22:17:31.646Z,1.97
2019-06-27T22:20:14.470Z,2.50
2019-06-27T22:22:37.842Z,1.70
2019-06-27T22:25:11.425Z,2.27
2019-06-27T22:27:43.026Z,2.00
2019-06-27T22:30:15.257Z,1.67
2019-06-27T22:32:50.113Z,1.80
2019-06-27T22:35:21.331Z,1.97
2019-06-27T22:38:11.119Z,2.27
2019-06-27T22:41:02.698Z,1.80
2019-06-27T22:43:52.359Z,2.37
2019-06-27T22:46:43.869Z,2.33
2019-06-27T22:49:16.113Z,2.13
2019-06-27T22:52:05.977Z,2.03
2019-06-27T22:54:40.842Z,2.10
2019-06-27T22:57:16.220Z,2.07
2019-06-27T22:59:51.789Z,2.23
2019-06-27T23:02:24.884Z,2.10
2019-06-27T23:04:58.117Z,2.07
2019-06-27T23:07:33.167Z,2.17
2019-06-27T23:10:06.204Z,2.20
2019-06-27T23:12:39.306Z,2.30
2019-06-27T23:15:12.419Z,2.13
2019-06-27T23:17:43.972Z,2.10
2019-06-27T23:20:18.208Z,2.80
2019-06-27T23:22:51.301Z,3.03
2019-06-27T23:25:25.224Z,2.10
2019-06-27T23:27:57.088Z,1.90
2019-06-27T23:30:31.116Z,1.90
2019-06-27T23:33:03.174Z,1.90
2019-06-27T23:35:37.407Z,2.30
2019-06-27T23:38:09.136Z,2.20
2019-06-27T23:40:41.374Z,2.87
2019-06-27T23:43:14.313Z,2.30
2019-06-27T23:45:45.616Z,2.10
2019-06-27T23:48:18.430Z,2.30
2019-06-27T23:50:53.048Z,2.30
2019-06-27T23:53:27.366Z,2.10
2019-06-27T23:55:59.681Z,2.63
2019-06-27T23:58:32.520Z,2.17
